createdAt,value
2022-11-13T00:01:12.468Z,5.43
2022-11-13T00:03:40.230Z,5.49
2022-11-13T00:06:10.720Z,5.51
2022-11-13T00:08:38.295Z,5.62
2022-11-13T00:11:08.649Z,5.68
2022-11-13T00:13:36.463Z,5.71
2022-11-13T00:16:06.234Z,5.75
2022-11-13T00:18:36.702Z,5.78
2022-11-13T00:21:10.287Z,5.81
2022-11-13T00:23:38.753Z,5.85
2022-11-13T00:26:08.534Z,5.84
2022-11-13T00:28:37.190Z,5.85
2022-11-13T00:31:06.504Z,5.84
2022-11-13T00:36:27.453Z,5.78
2022-11-13T00:38:57.227Z,5.73
2022-11-13T00:41:26.185Z,5.70
2022-11-13T00:43:54.688Z,5.66
2022-11-13T00:46:23.313Z,5.58
2022-11-13T00:48:52.444Z,5.52
2022-11-13T00:51:20.268Z,5.49
2022-11-13T00:53:49.318Z,5.47
2022-11-13T00:56:17.012Z,5.45
2022-11-13T00:58:44.861Z,5.42
2022-11-13T01:01:14.985Z,5.44
2022-11-13T01:03:43.470Z,5.42
2022-11-13T01:06:13.187Z,5.42
2022-11-13T01:08:41.869Z,5.43
2022-11-13T01:11:14.696Z,5.44
2022-11-13T01:13:44.441Z,5.47
2022-11-13T01:16:14.359Z,5.50
2022-11-13T01:18:43.406Z,5.56
2022-11-13T01:21:13.001Z,5.58
2022-11-13T01:23:42.691Z,5.59
2022-11-13T01:26:14.137Z,5.56
2022-11-13T01:28:44.518Z,5.57
2022-11-13T01:31:16.720Z,5.57
2022-11-13T01:33:46.708Z,5.59
2022-11-13T01:36:17.052Z,5.60
2022-11-13T01:38:45.052Z,5.58
2022-11-13T01:41:23.413Z,5.55
2022-11-13T01:43:53.168Z,5.55
2022-11-13T01:46:26.085Z,5.52
2022-11-13T01:48:59.977Z,5.51
2022-11-13T01:51:33.058Z,5.57
2022-11-13T01:54:03.800Z,5.57
2022-11-13T01:56:33.799Z,5.56
2022-11-13T01:59:08.124Z,5.58
2022-11-13T02:01:36.113Z,5.55
2022-11-13T02:04:04.103Z,5.56
2022-11-13T02:06:37.684Z,5.53
2022-11-13T02:09:06.957Z,5.50
2022-11-13T02:11:36.828Z,5.49
2022-11-13T02:14:06.475Z,5.46
2022-11-13T02:16:37.157Z,5.45
2022-11-13T02:19:17.676Z,5.45
2022-11-13T02:21:53.258Z,5.49
2022-11-13T02:24:26.776Z,5.54
2022-11-13T02:26:57.798Z,5.55
2022-11-13T02:29:25.881Z,5.53
2022-11-13T02:31:53.786Z,5.51
2022-11-13T02:34:21.989Z,5.50
2022-11-13T02:36:50.216Z,5.52
2022-11-13T02:39:18.362Z,5.56
2022-11-13T02:41:47.636Z,5.59
2022-11-13T02:44:15.615Z,5.58
2022-11-13T02:46:44.038Z,5.55
2022-11-13T02:49:11.967Z,5.53
2022-11-13T02:51:39.886Z,5.56
2022-11-13T02:54:09.907Z,5.57
2022-11-13T02:56:39.689Z,5.57
2022-11-13T02:59:09.329Z,5.60
2022-11-13T03:01:37.260Z,5.61
2022-11-13T03:04:05.397Z,5.63
2022-11-13T03:06:33.292Z,5.62
2022-11-13T03:09:01.590Z,5.62
2022-11-13T03:11:30.107Z,5.61
2022-11-13T03:13:58.091Z,5.62
2022-11-13T03:16:27.434Z,5.62
2022-11-13T03:18:56.683Z,5.61
2022-11-13T03:21:25.373Z,5.61
2022-11-13T03:23:55.256Z,5.62
2022-11-13T03:26:23.763Z,5.61
2022-11-13T03:28:52.342Z,5.63
2022-11-13T03:31:20.646Z,5.64
2022-11-13T03:33:50.324Z,5.67
2022-11-13T03:36:18.885Z,5.67
2022-11-13T03:38:46.929Z,5.68
2022-11-13T03:41:15.542Z,5.68
2022-11-13T03:43:43.639Z,5.69
2022-11-13T03:46:11.584Z,5.72
2022-11-13T03:48:40.293Z,5.73
2022-11-13T03:51:09.848Z,5.73
2022-11-13T03:53:37.808Z,5.75
2022-11-13T03:56:06.318Z,5.76
2022-11-13T03:58:37.374Z,5.78
2022-11-13T04:01:07.964Z,5.80
2022-11-13T04:03:36.439Z,5.78
2022-11-13T04:06:04.617Z,5.81
2022-11-13T04:08:33.871Z,5.79
2022-11-13T04:11:07.831Z,5.80
2022-11-13T04:13:35.894Z,5.80
2022-11-13T04:16:04.130Z,5.81
2022-11-13T04:18:32.297Z,5.82
2022-11-13T04:21:01.159Z,5.82
2022-11-13T04:23:29.105Z,5.83
2022-11-13T04:25:59.044Z,5.82
2022-11-13T04:28:27.668Z,5.83
2022-11-13T04:30:56.460Z,5.81
2022-11-13T04:33:24.384Z,5.82
2022-11-13T04:35:52.330Z,5.84
2022-11-13T04:38:20.304Z,5.85
2022-11-13T04:40:51.168Z,5.86
2022-11-13T04:43:19.403Z,5.86
2022-11-13T04:45:47.385Z,5.84
2022-11-13T04:48:15.317Z,5.85
2022-11-13T04:50:43.341Z,5.85
2022-11-13T04:53:11.255Z,5.82
2022-11-13T04:55:39.138Z,5.83
2022-11-13T04:58:07.100Z,5.86
2022-11-13T05:00:36.434Z,5.85
2022-11-13T05:03:04.502Z,5.85
2022-11-13T05:05:32.388Z,5.84
2022-11-13T05:08:00.289Z,5.83
2022-11-13T05:10:28.310Z,5.84
2022-11-13T05:12:57.600Z,5.84
2022-11-13T05:15:25.445Z,5.86
2022-11-13T05:17:55.238Z,5.85
2022-11-13T05:20:23.139Z,5.82
2022-11-13T05:22:51.081Z,5.80
2022-11-13T05:25:19.033Z,5.75
2022-11-13T05:27:46.946Z,5.72
2022-11-13T05:30:14.951Z,5.74
2022-11-13T05:32:42.834Z,5.74
2022-11-13T05:35:12.187Z,5.75
2022-11-13T05:37:40.128Z,5.75
2022-11-13T05:40:08.978Z,5.74
2022-11-13T05:42:36.937Z,5.74
2022-11-13T05:45:05.208Z,5.70
2022-11-13T05:47:46.490Z,5.67
2022-11-13T05:50:18.220Z,5.61
2022-11-13T05:52:45.788Z,5.53
2022-11-13T05:55:13.506Z,5.50
2022-11-13T05:57:43.556Z,5.51
2022-11-13T06:00:22.023Z,5.52
2022-11-13T06:02:49.934Z,5.55
2022-11-13T06:05:19.126Z,5.56
2022-11-13T06:07:50.215Z,5.57
2022-11-13T06:10:18.401Z,5.59
2022-11-13T06:12:46.321Z,5.54
2022-11-13T06:15:14.269Z,5.47
2022-11-13T06:17:46.375Z,5.47
2022-11-13T06:20:22.660Z,5.47
2022-11-13T06:22:53.710Z,5.47
2022-11-13T06:25:21.663Z,5.48
2022-11-13T06:27:49.402Z,5.48
2022-11-13T06:30:17.348Z,5.49
2022-11-13T06:32:45.259Z,5.49
2022-11-13T06:35:13.472Z,5.50
2022-11-13T06:37:53.786Z,5.51
2022-11-13T06:40:23.383Z,5.52
2022-11-13T06:42:51.392Z,5.52
2022-11-13T06:45:19.534Z,5.49
2022-11-13T06:47:47.248Z,5.47
2022-11-13T06:50:15.275Z,5.42
2022-11-13T06:52:43.262Z,5.40
2022-11-13T06:55:11.183Z,5.42
2022-11-13T06:57:40.513Z,5.42
2022-11-13T07:00:09.774Z,5.45
2022-11-13T07:02:37.714Z,5.49
2022-11-13T07:05:06.154Z,5.51
2022-11-13T07:07:34.550Z,5.53
2022-11-13T07:10:02.714Z,5.57
2022-11-13T07:12:30.768Z,5.62
2022-11-13T07:15:00.134Z,5.67
2022-11-13T07:17:30.040Z,5.69
2022-11-13T07:19:57.609Z,5.74
2022-11-13T07:22:25.213Z,5.77
2022-11-13T07:24:52.772Z,5.82
2022-11-13T07:27:20.376Z,5.90
2022-11-13T07:29:47.967Z,5.98
2022-11-13T07:32:16.867Z,6.07
2022-11-13T07:34:44.468Z,6.13
2022-11-13T07:37:12.160Z,6.22
2022-11-13T07:39:39.749Z,6.29
2022-11-13T07:42:07.521Z,6.34
2022-11-13T07:44:53.419Z,6.40
2022-11-13T07:47:23.508Z,6.46
2022-11-13T07:49:51.370Z,6.54
2022-11-13T07:52:19.006Z,6.60
2022-11-13T07:54:46.796Z,6.65
2022-11-13T07:57:15.776Z,6.73
2022-11-13T07:59:44.277Z,6.79
2022-11-13T08:02:16.436Z,6.84
2022-11-13T08:04:46.076Z,6.93
2022-11-13T08:07:13.867Z,6.92
2022-11-13T08:09:41.507Z,7.02
2022-11-13T08:12:09.257Z,7.10
2022-11-13T08:14:37.734Z,7.14
2022-11-13T08:17:05.486Z,7.23
2022-11-13T08:19:33.113Z,7.33
2022-11-13T08:22:02.196Z,7.37
2022-11-13T08:24:29.976Z,7.46
2022-11-13T08:26:58.724Z,7.54
2022-11-13T08:29:27.490Z,7.59
2022-11-13T08:31:56.054Z,7.59
2022-11-13T08:34:24.131Z,7.59
2022-11-13T08:36:52.961Z,7.69
2022-11-13T08:39:22.562Z,7.76
2022-11-13T08:41:51.610Z,7.87
2022-11-13T08:44:20.440Z,7.95
2022-11-13T08:46:48.604Z,8.03
2022-11-13T08:49:16.172Z,8.15
2022-11-13T08:51:43.807Z,8.26
2022-11-13T08:54:11.409Z,8.41
2022-11-13T08:56:41.501Z,8.47
2022-11-13T08:59:11.315Z,8.52
2022-11-13T09:01:39.993Z,8.59
2022-11-13T09:04:08.748Z,8.70
2022-11-13T09:06:36.713Z,8.77
2022-11-13T09:09:06.589Z,8.91
2022-11-13T09:11:34.641Z,8.91
2022-11-13T09:14:03.545Z,8.92
2022-11-13T09:16:31.189Z,8.99
2022-11-13T09:18:58.788Z,9.06
2022-11-13T09:21:26.337Z,9.05
2022-11-13T09:23:53.946Z,9.15
2022-11-13T09:26:21.619Z,9.21
2022-11-13T09:28:49.332Z,9.23
2022-11-13T09:31:18.260Z,9.32
2022-11-13T09:33:45.853Z,9.39
2022-11-13T09:36:15.347Z,9.39
2022-11-13T09:38:43.384Z,9.56
2022-11-13T09:41:14.059Z,9.70
2022-11-13T09:43:45.949Z,9.84
2022-11-13T09:46:21.114Z,9.87
2022-11-13T09:48:53.926Z,10.08
2022-11-13T09:51:25.776Z,10.26
2022-11-13T09:53:53.507Z,10.28
2022-11-13T09:56:29.683Z,10.43
2022-11-13T09:59:06.640Z,10.52
2022-11-13T10:01:44.495Z,10.60
2022-11-13T10:04:15.156Z,10.81
2022-11-13T10:06:59.362Z,10.96
2022-11-13T10:09:37.868Z,11.19
2022-11-13T10:12:08.337Z,11.21
2022-11-13T10:14:39.692Z,11.32
2022-11-13T10:17:16.258Z,11.48
2022-11-13T10:19:54.220Z,11.45
2022-11-13T10:22:34.687Z,11.50
2022-11-13T10:25:12.722Z,11.62
2022-11-13T10:27:43.523Z,11.64
2022-11-13T10:30:16.874Z,11.70
2022-11-13T10:32:47.404Z,11.80
2022-11-13T10:35:33.897Z,11.78
2022-11-13T10:38:08.246Z,11.80
2022-11-13T10:40:39.258Z,12.02
2022-11-13T10:43:14.292Z,11.91
2022-11-13T10:45:41.997Z,11.91
2022-11-13T10:48:21.901Z,11.92
2022-11-13T10:50:59.234Z,11.96
2022-11-13T10:53:32.057Z,11.70
2022-11-13T10:56:01.088Z,11.58
2022-11-13T10:58:30.323Z,11.41
2022-11-13T11:00:58.364Z,11.18
2022-11-13T11:03:29.280Z,11.08
2022-11-13T11:05:58.806Z,10.95
2022-11-13T11:08:31.292Z,10.77
2022-11-13T11:11:18.758Z,10.58
2022-11-13T11:13:47.045Z,10.46
2022-11-13T11:16:22.195Z,10.53
2022-11-13T11:18:56.928Z,10.48
2022-11-13T11:21:30.352Z,10.37
2022-11-13T11:24:02.053Z,10.41
2022-11-13T11:26:34.009Z,10.39
2022-11-13T11:29:09.553Z,10.43
2022-11-13T11:31:44.725Z,10.39
2022-11-13T11:34:20.758Z,10.22
2022-11-13T11:36:59.092Z,10.07
2022-11-13T11:39:30.600Z,9.92
2022-11-13T11:42:11.421Z,9.79
2022-11-13T11:44:51.872Z,9.63
2022-11-13T11:47:19.609Z,9.33
2022-11-13T11:49:51.204Z,9.25
2022-11-13T11:52:44.269Z,9.18
2022-11-13T11:55:31.538Z,9.15
2022-11-13T11:58:02.523Z,9.04
2022-11-13T12:00:33.686Z,9.00
2022-11-13T12:03:35.180Z,9.03
2022-11-13T12:06:12.633Z,9.00
2022-11-13T12:08:49.504Z,9.11
2022-11-13T12:11:27.749Z,9.06
2022-11-13T12:14:04.540Z,9.10
2022-11-13T12:16:43.054Z,9.16
2022-11-13T12:19:23.525Z,9.23
2022-11-13T12:22:11.653Z,9.24
2022-11-13T12:24:58.028Z,9.12
2022-11-13T12:27:34.812Z,9.14
2022-11-13T12:30:11.798Z,9.22
2022-11-13T12:33:07.670Z,9.26
2022-11-13T12:35:36.453Z,9.22
2022-11-13T12:38:13.995Z,9.27
2022-11-13T12:40:48.991Z,9.37
2022-11-13T12:43:46.155Z,9.43
2022-11-13T12:46:14.308Z,9.53
2022-11-13T12:48:43.801Z,9.57
2022-11-13T12:51:13.757Z,9.64
2022-11-13T12:53:48.548Z,9.78
2022-11-13T12:56:30.056Z,9.65
2022-11-13T13:01:52.890Z,9.59
2022-11-13T13:04:49.702Z,9.51
2022-11-13T13:07:31.833Z,9.44
2022-11-13T13:10:12.845Z,9.39
2022-11-13T13:12:50.418Z,9.33
2022-11-13T13:15:31.523Z,9.25
2022-11-13T13:18:10.553Z,9.19
2022-11-13T13:20:39.952Z,9.14
2022-11-13T13:23:12.564Z,9.03
2022-11-13T13:25:42.089Z,8.90
2022-11-13T13:28:21.257Z,8.87
2022-11-13T13:30:55.536Z,8.88
2022-11-13T13:33:27.048Z,8.88
2022-11-13T13:36:03.483Z,8.98
2022-11-13T13:38:37.920Z,8.90
2022-11-13T13:41:20.708Z,8.89
2022-11-13T13:43:58.696Z,8.81
2022-11-13T13:46:30.405Z,8.75
2022-11-13T13:49:05.808Z,8.71
2022-11-13T13:51:37.036Z,8.68
2022-11-13T13:54:08.715Z,8.66
2022-11-13T13:56:41.420Z,8.65
2022-11-13T13:59:17.373Z,8.56
2022-11-13T14:01:55.316Z,8.42
2022-11-13T14:04:24.224Z,8.42
2022-11-13T14:06:53.925Z,8.45
2022-11-13T14:09:23.684Z,8.36
2022-11-13T14:14:47.442Z,8.34
2022-11-13T14:17:23.671Z,8.34
2022-11-13T14:19:52.300Z,8.41
2022-11-13T14:22:20.038Z,8.44
2022-11-13T14:24:51.102Z,8.46
2022-11-13T14:27:23.137Z,8.43
2022-11-13T14:29:53.416Z,8.41
2022-11-13T14:32:24.487Z,8.40
2022-11-13T14:34:54.780Z,8.36
2022-11-13T14:37:25.992Z,8.29
2022-11-13T14:39:55.247Z,8.33
2022-11-13T14:42:29.844Z,8.39
2022-11-13T14:45:07.360Z,8.34
2022-11-13T14:47:37.566Z,8.34
2022-11-13T14:50:20.298Z,8.31
2022-11-13T14:52:57.637Z,8.24
2022-11-13T14:55:27.313Z,8.29
2022-11-13T14:57:56.228Z,8.27
2022-11-13T15:00:29.957Z,8.28
2022-11-13T15:02:57.869Z,8.27
2022-11-13T15:05:25.741Z,8.26
2022-11-13T15:07:55.453Z,8.31
2022-11-13T15:10:27.198Z,8.35
2022-11-13T15:12:56.106Z,8.37
2022-11-13T15:15:28.278Z,8.37
2022-11-13T15:17:56.216Z,8.35
2022-11-13T15:20:26.836Z,8.37
2022-11-13T15:22:55.376Z,8.34
2022-11-13T15:25:25.037Z,8.33
2022-11-13T15:27:52.633Z,8.31
2022-11-13T15:30:21.801Z,8.32
2022-11-13T15:32:53.724Z,8.29
2022-11-13T15:35:22.199Z,8.29
2022-11-13T15:37:49.855Z,8.22
2022-11-13T15:40:17.829Z,8.23
2022-11-13T15:42:45.845Z,8.24
2022-11-13T15:45:17.671Z,8.22
2022-11-13T15:47:46.540Z,8.20
2022-11-13T15:50:15.666Z,8.15
2022-11-13T15:52:46.938Z,8.19
2022-11-13T15:55:26.726Z,8.18
2022-11-13T15:57:54.712Z,8.17
2022-11-13T16:00:25.703Z,8.18
2022-11-13T16:02:56.112Z,8.19
2022-11-13T16:05:25.345Z,8.16
2022-11-13T16:07:53.786Z,8.18
2022-11-13T16:10:22.300Z,8.23
2022-11-13T16:12:49.848Z,8.25
2022-11-13T16:15:19.871Z,8.27
2022-11-13T16:17:50.193Z,8.26
2022-11-13T16:20:19.313Z,8.30
2022-11-13T16:22:47.460Z,8.30
2022-11-13T16:25:17.689Z,8.36
2022-11-13T16:27:45.977Z,8.33
2022-11-13T16:30:19.967Z,8.37
2022-11-13T16:32:48.182Z,8.40
2022-11-13T16:35:16.903Z,8.41
2022-11-13T16:37:45.836Z,8.44
2022-11-13T16:40:20.626Z,8.50
2022-11-13T16:42:48.657Z,8.52
2022-11-13T16:45:16.722Z,8.57
2022-11-13T16:47:44.724Z,8.58
2022-11-13T16:50:17.566Z,8.61
2022-11-13T16:52:46.568Z,8.63
2022-11-13T16:55:14.194Z,8.62
2022-11-13T16:57:42.234Z,8.64
2022-11-13T17:00:14.624Z,8.64
2022-11-13T17:02:42.196Z,8.68
2022-11-13T17:05:13.535Z,8.72
2022-11-13T17:07:41.107Z,8.73
2022-11-13T17:10:30.411Z,8.73
2022-11-13T17:12:58.728Z,8.72
2022-11-13T17:15:26.306Z,8.70
2022-11-13T17:17:57.902Z,8.71
2022-11-13T17:20:25.485Z,8.71
2022-11-13T17:22:53.052Z,8.73
2022-11-13T17:25:26.221Z,8.73
2022-11-13T17:27:53.761Z,8.73
2022-11-13T17:30:21.602Z,8.77
2022-11-13T17:32:49.190Z,8.77
2022-11-13T17:35:16.753Z,8.80
2022-11-13T17:37:44.296Z,8.79
2022-11-13T17:40:12.693Z,8.80
2022-11-13T17:42:42.807Z,8.80
2022-11-13T17:45:10.866Z,8.81
2022-11-13T17:47:38.404Z,8.85
2022-11-13T17:50:07.853Z,8.85
2022-11-13T17:52:35.709Z,8.86
2022-11-13T17:55:05.965Z,8.84
2022-11-13T17:57:34.218Z,8.82
2022-11-13T18:00:03.294Z,8.84
2022-11-13T18:02:30.825Z,8.85
2022-11-13T18:05:01.103Z,8.89
2022-11-13T18:07:28.740Z,8.93
2022-11-13T18:09:56.444Z,8.95
2022-11-13T18:12:24.040Z,8.95
2022-11-13T18:14:53.133Z,8.98
2022-11-13T18:17:23.076Z,8.98
2022-11-13T18:19:54.813Z,8.98
2022-11-13T18:22:26.429Z,9.00
2022-11-13T18:24:55.149Z,9.03
2022-11-13T18:27:22.847Z,9.04
2022-11-13T18:29:50.381Z,9.01
2022-11-13T18:32:17.933Z,9.01
2022-11-13T18:34:46.833Z,9.03
2022-11-13T18:37:14.404Z,9.04
2022-11-13T18:39:41.958Z,9.00
2022-11-13T18:42:09.490Z,9.04
2022-11-13T18:44:37.283Z,9.00
2022-11-13T18:47:04.985Z,8.98
2022-11-13T18:49:32.862Z,8.98
2022-11-13T18:52:01.804Z,8.97
2022-11-13T18:54:29.397Z,8.93
2022-11-13T18:56:56.951Z,8.95
2022-11-13T18:59:24.657Z,8.97
2022-11-13T19:01:52.225Z,8.94
2022-11-13T19:04:23.863Z,9.00
2022-11-13T19:06:52.644Z,9.00
2022-11-13T19:09:21.683Z,9.01
2022-11-13T19:11:50.235Z,8.97
2022-11-13T19:14:19.198Z,8.97
2022-11-13T19:16:47.137Z,8.97
2022-11-13T19:19:17.294Z,8.97
2022-11-13T19:21:45.313Z,8.98
2022-11-13T19:24:14.534Z,8.97
2022-11-13T19:26:46.137Z,8.96
2022-11-13T19:29:14.042Z,8.94
2022-11-13T19:31:42.109Z,8.95
2022-11-13T19:34:11.042Z,8.97
2022-11-13T19:36:40.901Z,8.96
2022-11-13T19:39:09.670Z,9.00
2022-11-13T19:41:37.289Z,9.00
2022-11-13T19:44:06.856Z,9.01
2022-11-13T19:46:34.425Z,8.98
2022-11-13T19:49:02.164Z,9.01
2022-11-13T19:51:29.990Z,9.02
2022-11-13T19:54:01.315Z,9.04
2022-11-13T19:56:32.126Z,9.05
2022-11-13T19:58:59.685Z,9.06
2022-11-13T20:01:31.737Z,9.07
2022-11-13T20:04:01.627Z,9.08
2022-11-13T20:06:32.181Z,9.09
2022-11-13T20:09:00.039Z,9.11
2022-11-13T20:11:27.664Z,9.15
2022-11-13T20:13:56.421Z,9.17
2022-11-13T20:16:24.951Z,9.19
2022-11-13T20:18:57.966Z,9.21
2022-11-13T20:21:26.105Z,9.23
2022-11-13T20:23:56.567Z,9.24
2022-11-13T20:26:24.181Z,9.27
2022-11-13T20:28:52.097Z,9.29
2022-11-13T20:31:22.194Z,9.29
2022-11-13T20:33:50.755Z,9.32
2022-11-13T20:36:20.073Z,9.33
2022-11-13T20:38:51.353Z,9.34
2022-11-13T20:41:20.632Z,9.35
2022-11-13T20:43:48.594Z,9.37
2022-11-13T20:46:17.832Z,9.36
2022-11-13T20:48:46.544Z,9.38
2022-11-13T20:51:16.298Z,9.40
2022-11-13T20:53:45.324Z,9.42
2022-11-13T20:56:13.073Z,9.47
2022-11-13T20:58:41.073Z,9.49
2022-11-13T21:01:11.202Z,9.52
2022-11-13T21:03:41.357Z,9.51
2022-11-13T21:06:10.851Z,9.51
2022-11-13T21:08:38.492Z,9.50
2022-11-13T21:11:08.620Z,9.52
2022-11-13T21:13:36.237Z,9.50
2022-11-13T21:16:06.089Z,9.50
2022-11-13T21:18:33.705Z,9.51
2022-11-13T21:21:05.576Z,9.52
2022-11-13T21:23:33.112Z,9.51
2022-11-13T21:26:01.325Z,9.50
2022-11-13T21:28:33.682Z,9.51
2022-11-13T21:31:03.126Z,9.56
2022-11-13T21:33:30.976Z,9.55
2022-11-13T21:36:05.198Z,9.56
2022-11-13T21:38:32.861Z,9.56
2022-11-13T21:41:14.631Z,9.51
2022-11-13T21:43:43.518Z,9.53
2022-11-13T21:46:11.168Z,9.52
2022-11-13T21:48:39.295Z,9.58
2022-11-13T21:51:07.451Z,9.60
2022-11-13T21:53:35.271Z,9.59
2022-11-13T21:56:03.040Z,9.58
2022-11-13T21:58:31.751Z,9.62
2022-11-13T22:01:01.482Z,9.59
2022-11-13T22:03:29.644Z,9.60
2022-11-13T22:06:13.773Z,9.61
2022-11-13T22:08:41.344Z,9.64
2022-11-13T22:11:09.104Z,9.61
2022-11-13T22:13:36.797Z,9.60
2022-11-13T22:16:07.295Z,9.59
2022-11-13T22:18:35.318Z,9.60
2022-11-13T22:21:03.596Z,9.63
2022-11-13T22:23:31.604Z,9.65
2022-11-13T22:26:03.290Z,9.63
2022-11-13T22:28:31.318Z,9.62
2022-11-13T22:30:59.282Z,9.57
2022-11-13T22:33:30.082Z,9.51
2022-11-13T22:36:01.865Z,9.51
2022-11-13T22:38:29.624Z,9.49
2022-11-13T22:41:04.256Z,9.47
2022-11-13T22:43:36.021Z,9.47
2022-11-13T22:46:06.090Z,9.40
2022-11-13T22:48:36.581Z,9.41
2022-11-13T22:51:05.842Z,9.42
2022-11-13T22:53:33.589Z,9.38
2022-11-13T22:56:02.722Z,9.39
2022-11-13T22:58:30.711Z,9.42
2022-11-13T23:01:05.464Z,9.43
2022-11-13T23:03:33.130Z,9.44
2022-11-13T23:06:03.625Z,9.42
2022-11-13T23:08:31.657Z,9.43
2022-11-13T23:11:01.038Z,9.43
2022-11-13T23:13:28.580Z,9.43
2022-11-13T23:15:56.352Z,9.44
2022-11-13T23:18:23.905Z,9.48
2022-11-13T23:20:51.459Z,9.49
2022-11-13T23:23:20.354Z,9.50
2022-11-13T23:25:47.896Z,9.48
2022-11-13T23:28:15.458Z,9.49
2022-11-13T23:30:43.093Z,9.49
2022-11-13T23:33:10.641Z,9.43
2022-11-13T23:35:38.228Z,9.43
2022-11-13T23:38:05.832Z,9.43
2022-11-13T23:40:34.868Z,9.38
2022-11-13T23:43:02.554Z,9.36
2022-11-13T23:45:30.581Z,9.33
2022-11-13T23:47:58.461Z,9.29
2022-11-13T23:50:26.034Z,9.29
2022-11-13T23:52:53.581Z,9.28
2022-11-13T23:55:22.508Z,9.23
2022-11-13T23:57:57.071Z,9.25
